sensor_id;sensor_type;location;lat;lon;timestamp;P1;durP1;ratioP1;P2;durP2;ratioP2
15645;SDS011;7922;43.622;1.476;2023-07-09T00:01:35;5.07;;;3.47;;
15645;SDS011;7922;43.622;1.476;2023-07-09T00:04:00;4.60;;;3.73;;
15645;SDS011;7922;43.622;1.476;2023-07-09T00:06:25;5.50;;;3.90;;
15645;SDS011;7922;43.622;1.476;2023-07-09T00:08:51;5.67;;;3.90;;
15645;SDS011;7922;43.622;1.476;2023-07-09T00:11:16;6.07;;;3.87;;
15645;SDS011;7922;43.622;1.476;2023-07-09T00:13:42;5.37;;;3.80;;
15645;SDS011;7922;43.622;1.476;2023-07-09T00:16:25;6.80;;;3.60;;
15645;SDS011;7922;43.622;1.476;2023-07-09T00:18:51;4.90;;;3.93;;
15645;SDS011;7922;43.622;1.476;2023-07-09T00:21:17;4.30;;;3.77;;
15645;SDS011;7922;43.622;1.476;2023-07-09T00:23:43;5.33;;;4.43;;
15645;SDS011;7922;43.622;1.476;2023-07-09T00:26:09;4.50;;;3.97;;
15645;SDS011;7922;43.622;1.476;2023-07-09T00:28:35;5.07;;;3.73;;
15645;SDS011;7922;43.622;1.476;2023-07-09T00:31:01;5.70;;;3.87;;
15645;SDS011;7922;43.622;1.476;2023-07-09T00:33:26;4.63;;;3.70;;
15645;SDS011;7922;43.622;1.476;2023-07-09T00:35:51;4.90;;;3.67;;
15645;SDS011;7922;43.622;1.476;2023-07-09T00:38:19;6.30;;;4.03;;
15645;SDS011;7922;43.622;1.476;2023-07-09T00:40:47;4.07;;;3.67;;
15645;SDS011;7922;43.622;1.476;2023-07-09T00:43:29;6.97;;;4.27;;
15645;SDS011;7922;43.622;1.476;2023-07-09T00:48:47;6.50;;;3.83;;
15645;SDS011;7922;43.622;1.476;2023-07-09T00:51:16;4.83;;;3.77;;
15645;SDS011;7922;43.622;1.476;2023-07-09T00:53:44;4.40;;;3.97;;
15645;SDS011;7922;43.622;1.476;2023-07-09T00:56:16;4.17;;;3.77;;
15645;SDS011;7922;43.622;1.476;2023-07-09T00:58:49;6.53;;;4.13;;
15645;SDS011;7922;43.622;1.476;2023-07-09T01:01:16;6.13;;;4.00;;
15645;SDS011;7922;43.622;1.476;2023-07-09T01:03:45;5.80;;;4.27;;
15645;SDS011;7922;43.622;1.476;2023-07-09T01:06:13;5.90;;;4.03;;
15645;SDS011;7922;43.622;1.476;2023-07-09T01:08:43;5.87;;;4.27;;
15645;SDS011;7922;43.622;1.476;2023-07-09T01:11:19;4.60;;;3.70;;
15645;SDS011;7922;43.622;1.476;2023-07-09T01:13:49;4.40;;;4.00;;
15645;SDS011;7922;43.622;1.476;2023-07-09T01:16:21;7.37;;;4.10;;
15645;SDS011;7922;43.622;1.476;2023-07-09T01:18:51;7.17;;;4.20;;
15645;SDS011;7922;43.622;1.476;2023-07-09T01:21:17;5.80;;;4.53;;
15645;SDS011;7922;43.622;1.476;2023-07-09T01:23:47;5.40;;;4.57;;
15645;SDS011;7922;43.622;1.476;2023-07-09T01:26:14;5.17;;;3.70;;
15645;SDS011;7922;43.622;1.476;2023-07-09T01:28:44;4.37;;;3.80;;
15645;SDS011;7922;43.622;1.476;2023-07-09T01:31:11;6.07;;;4.77;;
15645;SDS011;7922;43.622;1.476;2023-07-09T01:33:37;5.00;;;4.50;;
15645;SDS011;7922;43.622;1.476;2023-07-09T01:36:07;6.77;;;4.07;;
15645;SDS011;7922;43.622;1.476;2023-07-09T01:38:34;7.37;;;4.37;;
15645;SDS011;7922;43.622;1.476;2023-07-09T01:41:00;4.43;;;4.03;;
15645;SDS011;7922;43.622;1.476;2023-07-09T01:43:26;4.40;;;4.00;;
15645;SDS011;7922;43.622;1.476;2023-07-09T01:45:54;7.20;;;4.33;;
15645;SDS011;7922;43.622;1.476;2023-07-09T01:48:20;6.20;;;4.03;;
15645;SDS011;7922;43.622;1.476;2023-07-09T01:50:45;5.57;;;4.13;;
15645;SDS011;7922;43.622;1.476;2023-07-09T01:53:12;7.73;;;3.90;;
15645;SDS011;7922;43.622;1.476;2023-07-09T01:55:39;9.20;;;5.07;;
15645;SDS011;7922;43.622;1.476;2023-07-09T01:58:04;5.93;;;4.20;;
15645;SDS011;7922;43.622;1.476;2023-07-09T02:00:30;4.70;;;3.80;;
15645;SDS011;7922;43.622;1.476;2023-07-09T02:02:55;5.40;;;4.13;;
15645;SDS011;7922;43.622;1.476;2023-07-09T02:05:20;6.00;;;4.20;;
15645;SDS011;7922;43.622;1.476;2023-07-09T02:07:46;4.90;;;3.93;;
15645;SDS011;7922;43.622;1.476;2023-07-09T02:10:12;6.13;;;4.60;;
15645;SDS011;7922;43.622;1.476;2023-07-09T02:12:41;4.63;;;4.13;;
15645;SDS011;7922;43.622;1.476;2023-07-09T02:15:06;6.07;;;4.40;;
15645;SDS011;7922;43.622;1.476;2023-07-09T02:17:32;6.70;;;4.00;;
15645;SDS011;7922;43.622;1.476;2023-07-09T02:19:58;7.03;;;4.47;;
15645;SDS011;7922;43.622;1.476;2023-07-09T02:22:23;6.63;;;4.33;;
15645;SDS011;7922;43.622;1.476;2023-07-09T02:24:48;6.13;;;4.40;;
15645;SDS011;7922;43.622;1.476;2023-07-09T02:27:15;5.73;;;4.30;;
15645;SDS011;7922;43.622;1.476;2023-07-09T02:29:42;5.13;;;4.37;;
15645;SDS011;7922;43.622;1.476;2023-07-09T02:32:07;6.13;;;4.27;;
15645;SDS011;7922;43.622;1.476;2023-07-09T02:34:32;6.57;;;4.70;;
15645;SDS011;7922;43.622;1.476;2023-07-09T02:36:58;4.67;;;4.27;;
15645;SDS011;7922;43.622;1.476;2023-07-09T02:39:24;6.20;;;4.57;;
15645;SDS011;7922;43.622;1.476;2023-07-09T02:41:50;5.30;;;4.73;;
15645;SDS011;7922;43.622;1.476;2023-07-09T02:44:15;5.60;;;4.53;;
15645;SDS011;7922;43.622;1.476;2023-07-09T02:46:41;6.90;;;4.63;;
15645;SDS011;7922;43.622;1.476;2023-07-09T02:49:09;5.10;;;4.10;;
15645;SDS011;7922;43.622;1.476;2023-07-09T02:51:35;8.97;;;6.13;;
15645;SDS011;7922;43.622;1.476;2023-07-09T02:54:01;9.20;;;5.80;;
15645;SDS011;7922;43.622;1.476;2023-07-09T02:56:28;6.03;;;5.43;;
15645;SDS011;7922;43.622;1.476;2023-07-09T02:58:53;5.43;;;4.93;;
15645;SDS011;7922;43.622;1.476;2023-07-09T03:01:18;9.47;;;4.67;;
15645;SDS011;7922;43.622;1.476;2023-07-09T03:03:44;5.30;;;4.67;;
15645;SDS011;7922;43.622;1.476;2023-07-09T03:06:09;5.97;;;4.50;;
15645;SDS011;7922;43.622;1.476;2023-07-09T03:08:35;6.70;;;4.60;;
15645;SDS011;7922;43.622;1.476;2023-07-09T03:11:00;8.37;;;5.13;;
15645;SDS011;7922;43.622;1.476;2023-07-09T03:13:34;6.13;;;5.30;;
15645;SDS011;7922;43.622;1.476;2023-07-09T03:15:59;8.67;;;5.10;;
15645;SDS011;7922;43.622;1.476;2023-07-09T03:18:25;7.40;;;4.73;;
15645;SDS011;7922;43.622;1.476;2023-07-09T03:20:50;5.73;;;5.03;;
15645;SDS011;7922;43.622;1.476;2023-07-09T03:23:15;6.17;;;5.10;;
15645;SDS011;7922;43.622;1.476;2023-07-09T03:25:41;5.40;;;4.90;;
15645;SDS011;7922;43.622;1.476;2023-07-09T03:28:07;7.03;;;5.20;;
15645;SDS011;7922;43.622;1.476;2023-07-09T03:30:32;7.77;;;5.27;;
15645;SDS011;7922;43.622;1.476;2023-07-09T03:32:58;7.27;;;4.80;;
15645;SDS011;7922;43.622;1.476;2023-07-09T03:35:23;5.77;;;5.17;;
15645;SDS011;7922;43.622;1.476;2023-07-09T03:37:48;6.40;;;5.37;;
15645;SDS011;7922;43.622;1.476;2023-07-09T03:40:19;6.67;;;5.53;;
15645;SDS011;7922;43.622;1.476;2023-07-09T03:42:46;6.37;;;5.57;;
15645;SDS011;7922;43.622;1.476;2023-07-09T03:45:11;10.67;;;5.60;;
15645;SDS011;7922;43.622;1.476;2023-07-09T03:47:36;9.10;;;5.40;;
15645;SDS011;7922;43.622;1.476;2023-07-09T03:50:01;6.77;;;5.37;;
15645;SDS011;7922;43.622;1.476;2023-07-09T03:52:27;8.27;;;5.80;;
15645;SDS011;7922;43.622;1.476;2023-07-09T03:54:52;8.77;;;4.97;;
15645;SDS011;7922;43.622;1.476;2023-07-09T03:57:17;7.70;;;5.53;;
15645;SDS011;7922;43.622;1.476;2023-07-09T03:59:42;7.40;;;5.20;;
15645;SDS011;7922;43.622;1.476;2023-07-09T04:02:08;6.47;;;5.13;;
15645;SDS011;7922;43.622;1.476;2023-07-09T04:04:33;7.70;;;5.20;;
15645;SDS011;7922;43.622;1.476;2023-07-09T04:06:58;5.87;;;5.13;;
15645;SDS011;7922;43.622;1.476;2023-07-09T04:09:24;9.07;;;5.47;;
15645;SDS011;7922;43.622;1.476;2023-07-09T04:11:49;6.73;;;5.53;;
15645;SDS011;7922;43.622;1.476;2023-07-09T04:14:14;8.07;;;5.63;;
15645;SDS011;7922;43.622;1.476;2023-07-09T04:16:39;7.03;;;5.73;;
15645;SDS011;7922;43.622;1.476;2023-07-09T04:19:05;7.00;;;5.20;;
15645;SDS011;7922;43.622;1.476;2023-07-09T04:21:30;7.43;;;5.90;;
15645;SDS011;7922;43.622;1.476;2023-07-09T04:23:55;7.23;;;5.60;;
15645;SDS011;7922;43.622;1.476;2023-07-09T04:26:20;8.40;;;5.67;;
15645;SDS011;7922;43.622;1.476;2023-07-09T04:28:46;5.73;;;5.20;;
15645;SDS011;7922;43.622;1.476;2023-07-09T04:31:11;8.83;;;5.73;;
15645;SDS011;7922;43.622;1.476;2023-07-09T04:33:36;6.43;;;5.73;;
15645;SDS011;7922;43.622;1.476;2023-07-09T04:36:02;7.47;;;6.10;;
15645;SDS011;7922;43.622;1.476;2023-07-09T04:38:27;9.70;;;6.57;;
15645;SDS011;7922;43.622;1.476;2023-07-09T04:40:52;7.73;;;6.10;;
15645;SDS011;7922;43.622;1.476;2023-07-09T04:43:18;7.63;;;6.00;;
15645;SDS011;7922;43.622;1.476;2023-07-09T04:45:43;9.37;;;6.07;;
15645;SDS011;7922;43.622;1.476;2023-07-09T04:48:08;9.63;;;6.20;;
15645;SDS011;7922;43.622;1.476;2023-07-09T04:50:33;7.63;;;5.30;;
15645;SDS011;7922;43.622;1.476;2023-07-09T04:52:59;7.87;;;5.70;;
15645;SDS011;7922;43.622;1.476;2023-07-09T04:55:25;6.40;;;5.23;;
15645;SDS011;7922;43.622;1.476;2023-07-09T04:57:50;7.43;;;5.47;;
15645;SDS011;7922;43.622;1.476;2023-07-09T05:00:16;5.63;;;5.00;;
15645;SDS011;7922;43.622;1.476;2023-07-09T05:02:41;7.43;;;5.30;;
15645;SDS011;7922;43.622;1.476;2023-07-09T05:05:06;9.13;;;5.57;;
15645;SDS011;7922;43.622;1.476;2023-07-09T05:07:32;7.27;;;5.43;;
15645;SDS011;7922;43.622;1.476;2023-07-09T05:09:57;8.30;;;5.60;;
15645;SDS011;7922;43.622;1.476;2023-07-09T05:12:25;7.47;;;5.30;;
15645;SDS011;7922;43.622;1.476;2023-07-09T05:14:51;9.27;;;5.67;;
15645;SDS011;7922;43.622;1.476;2023-07-09T05:17:17;7.17;;;5.53;;
15645;SDS011;7922;43.622;1.476;2023-07-09T05:19:42;6.43;;;5.33;;
15645;SDS011;7922;43.622;1.476;2023-07-09T05:22:07;7.77;;;5.73;;
15645;SDS011;7922;43.622;1.476;2023-07-09T05:24:33;7.90;;;4.80;;
15645;SDS011;7922;43.622;1.476;2023-07-09T05:26:58;6.43;;;5.33;;
15645;SDS011;7922;43.622;1.476;2023-07-09T05:29:24;8.47;;;5.80;;
15645;SDS011;7922;43.622;1.476;2023-07-09T05:31:50;7.13;;;5.53;;
15645;SDS011;7922;43.622;1.476;2023-07-09T05:34:15;8.53;;;5.40;;
15645;SDS011;7922;43.622;1.476;2023-07-09T05:36:40;6.07;;;4.90;;
15645;SDS011;7922;43.622;1.476;2023-07-09T05:39:05;7.57;;;5.20;;
15645;SDS011;7922;43.622;1.476;2023-07-09T05:41:31;9.73;;;5.07;;
15645;SDS011;7922;43.622;1.476;2023-07-09T05:43:56;6.40;;;4.83;;
15645;SDS011;7922;43.622;1.476;2023-07-09T05:46:22;8.17;;;4.87;;
15645;SDS011;7922;43.622;1.476;2023-07-09T05:48:47;6.63;;;4.83;;
15645;SDS011;7922;43.622;1.476;2023-07-09T05:51:13;6.37;;;4.57;;
15645;SDS011;7922;43.622;1.476;2023-07-09T05:53:38;6.47;;;4.43;;
15645;SDS011;7922;43.622;1.476;2023-07-09T05:56:03;6.13;;;4.97;;
15645;SDS011;7922;43.622;1.476;2023-07-09T05:58:29;5.17;;;4.63;;
15645;SDS011;7922;43.622;1.476;2023-07-09T06:00:54;6.83;;;4.87;;
15645;SDS011;7922;43.622;1.476;2023-07-09T06:03:20;7.17;;;4.73;;
15645;SDS011;7922;43.622;1.476;2023-07-09T06:05:46;6.53;;;4.80;;
15645;SDS011;7922;43.622;1.476;2023-07-09T06:08:12;5.43;;;4.93;;
15645;SDS011;7922;43.622;1.476;2023-07-09T06:10:37;5.77;;;4.70;;
15645;SDS011;7922;43.622;1.476;2023-07-09T06:13:02;6.73;;;4.80;;
15645;SDS011;7922;43.622;1.476;2023-07-09T06:15:28;8.83;;;5.30;;
15645;SDS011;7922;43.622;1.476;2023-07-09T06:17:53;7.20;;;4.57;;
15645;SDS011;7922;43.622;1.476;2023-07-09T06:20:18;6.90;;;4.80;;
15645;SDS011;7922;43.622;1.476;2023-07-09T06:22:43;6.87;;;4.80;;
15645;SDS011;7922;43.622;1.476;2023-07-09T06:25:09;6.83;;;5.30;;
15645;SDS011;7922;43.622;1.476;2023-07-09T06:27:34;7.10;;;5.40;;
15645;SDS011;7922;43.622;1.476;2023-07-09T06:29:59;8.20;;;5.53;;
15645;SDS011;7922;43.622;1.476;2023-07-09T06:32:25;6.53;;;5.23;;
15645;SDS011;7922;43.622;1.476;2023-07-09T06:34:50;7.20;;;4.80;;
15645;SDS011;7922;43.622;1.476;2023-07-09T06:37:15;5.77;;;5.10;;
15645;SDS011;7922;43.622;1.476;2023-07-09T06:39:40;13.57;;;5.57;;
15645;SDS011;7922;43.622;1.476;2023-07-09T06:42:06;5.87;;;5.17;;
15645;SDS011;7922;43.622;1.476;2023-07-09T06:44:31;6.20;;;5.60;;
15645;SDS011;7922;43.622;1.476;2023-07-09T06:46:56;5.83;;;5.30;;
15645;SDS011;7922;43.622;1.476;2023-07-09T06:49:22;7.70;;;5.93;;
15645;SDS011;7922;43.622;1.476;2023-07-09T06:51:47;6.93;;;6.33;;
15645;SDS011;7922;43.622;1.476;2023-07-09T06:54:12;7.07;;;6.07;;
15645;SDS011;7922;43.622;1.476;2023-07-09T06:56:37;9.60;;;6.43;;
15645;SDS011;7922;43.622;1.476;2023-07-09T06:59:03;7.70;;;6.80;;
15645;SDS011;7922;43.622;1.476;2023-07-09T07:01:28;9.30;;;6.50;;
15645;SDS011;7922;43.622;1.476;2023-07-09T07:03:53;7.90;;;6.63;;
15645;SDS011;7922;43.622;1.476;2023-07-09T07:06:18;8.60;;;6.70;;
15645;SDS011;7922;43.622;1.476;2023-07-09T07:08:44;8.43;;;7.03;;
15645;SDS011;7922;43.622;1.476;2023-07-09T07:11:09;7.97;;;7.17;;
15645;SDS011;7922;43.622;1.476;2023-07-09T07:13:35;9.20;;;7.23;;
15645;SDS011;7922;43.622;1.476;2023-07-09T07:16:03;10.37;;;7.30;;
15645;SDS011;7922;43.622;1.476;2023-07-09T07:18:33;9.27;;;7.97;;
15645;SDS011;7922;43.622;1.476;2023-07-09T07:20:59;8.57;;;7.70;;
15645;SDS011;7922;43.622;1.476;2023-07-09T07:23:24;8.87;;;7.40;;
15645;SDS011;7922;43.622;1.476;2023-07-09T07:25:50;10.13;;;7.63;;
15645;SDS011;7922;43.622;1.476;2023-07-09T07:28:15;11.50;;;8.40;;
15645;SDS011;7922;43.622;1.476;2023-07-09T07:30:41;11.83;;;8.70;;
15645;SDS011;7922;43.622;1.476;2023-07-09T07:33:07;9.33;;;8.43;;
15645;SDS011;7922;43.622;1.476;2023-07-09T07:35:32;9.73;;;8.83;;
15645;SDS011;7922;43.622;1.476;2023-07-09T07:37:58;9.97;;;9.00;;
15645;SDS011;7922;43.622;1.476;2023-07-09T07:40:23;10.10;;;8.77;;
15645;SDS011;7922;43.622;1.476;2023-07-09T07:42:48;9.00;;;8.10;;
15645;SDS011;7922;43.622;1.476;2023-07-09T07:45:14;11.07;;;8.52;;
15645;SDS011;7922;43.622;1.476;2023-07-09T07:47:39;8.50;;;7.68;;
15645;SDS011;7922;43.622;1.476;2023-07-09T07:50:08;8.88;;;7.85;;
15645;SDS011;7922;43.622;1.476;2023-07-09T07:52:33;10.07;;;9.13;;
15645;SDS011;7922;43.622;1.476;2023-07-09T07:54:58;10.77;;;8.85;;
15645;SDS011;7922;43.622;1.476;2023-07-09T07:57:24;11.07;;;9.90;;
15645;SDS011;7922;43.622;1.476;2023-07-09T07:59:50;10.80;;;9.80;;
15645;SDS011;7922;43.622;1.476;2023-07-09T08:02:15;10.95;;;9.95;;
15645;SDS011;7922;43.622;1.476;2023-07-09T08:04:40;12.27;;;9.63;;
15645;SDS011;7922;43.622;1.476;2023-07-09T08:07:09;10.85;;;9.68;;
15645;SDS011;7922;43.622;1.476;2023-07-09T08:09:35;12.68;;;9.75;;
15645;SDS011;7922;43.622;1.476;2023-07-09T08:12:01;10.10;;;9.20;;
15645;SDS011;7922;43.622;1.476;2023-07-09T08:14:27;10.50;;;9.43;;
15645;SDS011;7922;43.622;1.476;2023-07-09T08:16:52;10.50;;;9.43;;
15645;SDS011;7922;43.622;1.476;2023-07-09T08:19:18;10.68;;;9.57;;
15645;SDS011;7922;43.622;1.476;2023-07-09T08:21:44;11.68;;;9.68;;
15645;SDS011;7922;43.622;1.476;2023-07-09T08:24:10;10.55;;;9.60;;
15645;SDS011;7922;43.622;1.476;2023-07-09T08:26:35;11.00;;;10.02;;
15645;SDS011;7922;43.622;1.476;2023-07-09T08:29:00;10.43;;;9.25;;
15645;SDS011;7922;43.622;1.476;2023-07-09T08:31:26;11.82;;;10.63;;
15645;SDS011;7922;43.622;1.476;2023-07-09T08:33:51;10.77;;;9.02;;
15645;SDS011;7922;43.622;1.476;2023-07-09T08:36:16;10.85;;;9.77;;
15645;SDS011;7922;43.622;1.476;2023-07-09T08:38:41;10.10;;;9.07;;
15645;SDS011;7922;43.622;1.476;2023-07-09T08:46:29;9.93;;;9.05;;
15645;SDS011;7922;43.622;1.476;2023-07-09T08:49:20;9.60;;;8.70;;
15645;SDS011;7922;43.622;1.476;2023-07-09T08:51:59;9.90;;;8.85;;
15645;SDS011;7922;43.622;1.476;2023-07-09T08:54:26;9.27;;;8.32;;
15645;SDS011;7922;43.622;1.476;2023-07-09T08:56:54;9.10;;;8.23;;
15645;SDS011;7922;43.622;1.476;2023-07-09T08:59:24;10.85;;;8.82;;
15645;SDS011;7922;43.622;1.476;2023-07-09T09:01:51;8.45;;;7.65;;
15645;SDS011;7922;43.622;1.476;2023-07-09T09:04:23;8.82;;;8.02;;
15645;SDS011;7922;43.622;1.476;2023-07-09T09:07:06;11.40;;;9.55;;
15645;SDS011;7922;43.622;1.476;2023-07-09T09:09:47;11.10;;;10.00;;
15645;SDS011;7922;43.622;1.476;2023-07-09T09:12:21;11.40;;;10.30;;
15645;SDS011;7922;43.622;1.476;2023-07-09T09:17:45;10.52;;;9.68;;
15645;SDS011;7922;43.622;1.476;2023-07-09T09:20:17;10.60;;;9.70;;
15645;SDS011;7922;43.622;1.476;2023-07-09T09:22:50;10.13;;;9.15;;
15645;SDS011;7922;43.622;1.476;2023-07-09T09:25:23;12.88;;;11.27;;
15645;SDS011;7922;43.622;1.476;2023-07-09T09:27:52;11.85;;;10.73;;
15645;SDS011;7922;43.622;1.476;2023-07-09T09:30:19;11.40;;;10.30;;
15645;SDS011;7922;43.622;1.476;2023-07-09T09:32:51;12.05;;;10.88;;
15645;SDS011;7922;43.622;1.476;2023-07-09T09:35:18;12.57;;;11.15;;
15645;SDS011;7922;43.622;1.476;2023-07-09T09:37:50;12.68;;;11.57;;
15645;SDS011;7922;43.622;1.476;2023-07-09T09:40:17;13.25;;;12.05;;
15645;SDS011;7922;43.622;1.476;2023-07-09T09:42:43;13.57;;;12.48;;
15645;SDS011;7922;43.622;1.476;2023-07-09T09:45:13;12.52;;;11.43;;
15645;SDS011;7922;43.622;1.476;2023-07-09T09:47:40;11.27;;;10.25;;
15645;SDS011;7922;43.622;1.476;2023-07-09T09:50:06;11.57;;;10.40;;
15645;SDS011;7922;43.622;1.476;2023-07-09T09:52:31;11.68;;;10.48;;
15645;SDS011;7922;43.622;1.476;2023-07-09T09:55:01;11.45;;;10.38;;
15645;SDS011;7922;43.622;1.476;2023-07-09T09:57:33;11.55;;;10.55;;
15645;SDS011;7922;43.622;1.476;2023-07-09T09:59:58;11.63;;;10.52;;
15645;SDS011;7922;43.622;1.476;2023-07-09T10:02:24;11.65;;;10.65;;
15645;SDS011;7922;43.622;1.476;2023-07-09T10:04:50;12.10;;;10.93;;
15645;SDS011;7922;43.622;1.476;2023-07-09T10:07:33;12.00;;;10.88;;
15645;SDS011;7922;43.622;1.476;2023-07-09T10:10:01;12.75;;;11.65;;
15645;SDS011;7922;43.622;1.476;2023-07-09T10:17:36;12.15;;;11.00;;
15645;SDS011;7922;43.622;1.476;2023-07-09T10:20:06;12.48;;;11.40;;
15645;SDS011;7922;43.622;1.476;2023-07-09T10:22:53;13.65;;;12.50;;
15645;SDS011;7922;43.622;1.476;2023-07-09T10:36:17;13.00;;;11.80;;
15645;SDS011;7922;43.622;1.476;2023-07-09T10:39:04;13.85;;;12.57;;
15645;SDS011;7922;43.622;1.476;2023-07-09T10:41:45;15.05;;;12.82;;
15645;SDS011;7922;43.622;1.476;2023-07-09T10:47:14;15.00;;;13.60;;
15645;SDS011;7922;43.622;1.476;2023-07-09T10:49:51;16.33;;;14.68;;
15645;SDS011;7922;43.622;1.476;2023-07-09T10:52:25;15.43;;;14.05;;
15645;SDS011;7922;43.622;1.476;2023-07-09T11:00:14;14.05;;;12.77;;
15645;SDS011;7922;43.622;1.476;2023-07-09T11:02:42;13.30;;;12.10;;
15645;SDS011;7922;43.622;1.476;2023-07-09T11:05:08;13.02;;;11.90;;
15645;SDS011;7922;43.622;1.476;2023-07-09T11:07:35;13.15;;;11.98;;
15645;SDS011;7922;43.622;1.476;2023-07-09T11:10:06;15.85;;;12.98;;
15645;SDS011;7922;43.622;1.476;2023-07-09T11:12:44;13.70;;;12.45;;
15645;SDS011;7922;43.622;1.476;2023-07-09T11:15:25;13.48;;;12.35;;
15645;SDS011;7922;43.622;1.476;2023-07-09T11:17:57;13.10;;;12.02;;
15645;SDS011;7922;43.622;1.476;2023-07-09T11:20:24;13.02;;;11.73;;
15645;SDS011;7922;43.622;1.476;2023-07-09T11:23:06;13.40;;;12.10;;
15645;SDS011;7922;43.622;1.476;2023-07-09T11:25:46;13.35;;;12.25;;
15645;SDS011;7922;43.622;1.476;2023-07-09T11:28:13;12.88;;;11.98;;
15645;SDS011;7922;43.622;1.476;2023-07-09T11:30:46;14.27;;;12.98;;
15645;SDS011;7922;43.622;1.476;2023-07-09T11:33:17;13.93;;;12.70;;
15645;SDS011;7922;43.622;1.476;2023-07-09T11:35:54;13.38;;;12.18;;
15645;SDS011;7922;43.622;1.476;2023-07-09T11:38:38;14.05;;;12.85;;
15645;SDS011;7922;43.622;1.476;2023-07-09T11:46:37;13.15;;;12.02;;
15645;SDS011;7922;43.622;1.476;2023-07-09T11:49:12;13.18;;;12.05;;
15645;SDS011;7922;43.622;1.476;2023-07-09T11:51:40;13.65;;;12.55;;
15645;SDS011;7922;43.622;1.476;2023-07-09T11:54:13;14.20;;;13.00;;
15645;SDS011;7922;43.622;1.476;2023-07-09T11:56:38;12.95;;;11.95;;
15645;SDS011;7922;43.622;1.476;2023-07-09T11:59:04;13.07;;;12.02;;
15645;SDS011;7922;43.622;1.476;2023-07-09T12:01:34;14.05;;;12.75;;
15645;SDS011;7922;43.622;1.476;2023-07-09T12:04:07;12.90;;;11.82;;
15645;SDS011;7922;43.622;1.476;2023-07-09T12:06:39;13.88;;;12.63;;
15645;SDS011;7922;43.622;1.476;2023-07-09T12:09:05;13.30;;;12.15;;
15645;SDS011;7922;43.622;1.476;2023-07-09T12:11:32;13.68;;;12.40;;
15645;SDS011;7922;43.622;1.476;2023-07-09T12:14:08;14.23;;;12.70;;
15645;SDS011;7922;43.622;1.476;2023-07-09T12:16:37;13.05;;;11.85;;
15645;SDS011;7922;43.622;1.476;2023-07-09T12:19:04;13.77;;;12.38;;
15645;SDS011;7922;43.622;1.476;2023-07-09T12:21:30;12.70;;;11.68;;
15645;SDS011;7922;43.622;1.476;2023-07-09T12:23:57;13.73;;;12.57;;
15645;SDS011;7922;43.622;1.476;2023-07-09T12:26:22;14.55;;;13.25;;
15645;SDS011;7922;43.622;1.476;2023-07-09T12:28:51;13.93;;;12.70;;
15645;SDS011;7922;43.622;1.476;2023-07-09T12:31:26;13.45;;;12.20;;
15645;SDS011;7922;43.622;1.476;2023-07-09T12:33:54;12.73;;;11.63;;
15645;SDS011;7922;43.622;1.476;2023-07-09T12:36:20;12.50;;;11.50;;
15645;SDS011;7922;43.622;1.476;2023-07-09T12:38:52;11.98;;;10.98;;
15645;SDS011;7922;43.622;1.476;2023-07-09T12:41:25;12.85;;;11.85;;
15645;SDS011;7922;43.622;1.476;2023-07-09T12:43:54;13.23;;;12.13;;
15645;SDS011;7922;43.622;1.476;2023-07-09T12:46:21;12.85;;;11.75;;
15645;SDS011;7922;43.622;1.476;2023-07-09T12:48:48;12.10;;;10.80;;
15645;SDS011;7922;43.622;1.476;2023-07-09T12:51:15;12.48;;;11.27;;
15645;SDS011;7922;43.622;1.476;2023-07-09T12:53:45;13.05;;;11.80;;
15645;SDS011;7922;43.622;1.476;2023-07-09T12:56:13;11.98;;;10.93;;
15645;SDS011;7922;43.622;1.476;2023-07-09T12:58:40;13.27;;;12.13;;
15645;SDS011;7922;43.622;1.476;2023-07-09T13:01:07;11.65;;;10.55;;
15645;SDS011;7922;43.622;1.476;2023-07-09T13:03:38;12.48;;;11.38;;
15645;SDS011;7922;43.622;1.476;2023-07-09T13:06:05;11.55;;;10.45;;
15645;SDS011;7922;43.622;1.476;2023-07-09T13:08:54;11.65;;;10.65;;
15645;SDS011;7922;43.622;1.476;2023-07-09T13:11:21;11.52;;;10.48;;
15645;SDS011;7922;43.622;1.476;2023-07-09T13:13:56;11.38;;;10.35;;
15645;SDS011;7922;43.622;1.476;2023-07-09T13:16:22;11.10;;;10.10;;
15645;SDS011;7922;43.622;1.476;2023-07-09T13:18:48;11.75;;;10.65;;
15645;SDS011;7922;43.622;1.476;2023-07-09T13:21:15;12.50;;;11.25;;
15645;SDS011;7922;43.622;1.476;2023-07-09T13:23:42;11.57;;;9.82;;
15645;SDS011;7922;43.622;1.476;2023-07-09T13:26:07;10.77;;;9.75;;
15645;SDS011;7922;43.622;1.476;2023-07-09T13:28:33;11.77;;;10.60;;
15645;SDS011;7922;43.622;1.476;2023-07-09T13:31:07;10.50;;;9.50;;
15645;SDS011;7922;43.622;1.476;2023-07-09T13:33:34;10.23;;;9.43;;
15645;SDS011;7922;43.622;1.476;2023-07-09T13:35:59;10.20;;;9.40;;
15645;SDS011;7922;43.622;1.476;2023-07-09T13:38:25;11.30;;;9.50;;
15645;SDS011;7922;43.622;1.476;2023-07-09T13:40:54;10.50;;;9.40;;
15645;SDS011;7922;43.622;1.476;2023-07-09T13:43:29;9.45;;;8.65;;
15645;SDS011;7922;43.622;1.476;2023-07-09T13:45:58;10.98;;;9.57;;
15645;SDS011;7922;43.622;1.476;2023-07-09T13:48:25;10.57;;;9.02;;
15645;SDS011;7922;43.622;1.476;2023-07-09T13:50:52;10.35;;;9.55;;
15645;SDS011;7922;43.622;1.476;2023-07-09T13:53:20;9.82;;;9.00;;
15645;SDS011;7922;43.622;1.476;2023-07-09T13:55:48;9.80;;;8.88;;
15645;SDS011;7922;43.622;1.476;2023-07-09T13:58:15;10.10;;;9.07;;
15645;SDS011;7922;43.622;1.476;2023-07-09T14:00:42;9.55;;;8.23;;
15645;SDS011;7922;43.622;1.476;2023-07-09T14:03:17;8.77;;;7.97;;
15645;SDS011;7922;43.622;1.476;2023-07-09T14:05:46;9.63;;;8.77;;
15645;SDS011;7922;43.622;1.476;2023-07-09T14:08:11;9.05;;;8.25;;
15645;SDS011;7922;43.622;1.476;2023-07-09T14:10:37;11.55;;;8.68;;
15645;SDS011;7922;43.622;1.476;2023-07-09T14:13:02;9.85;;;8.25;;
15645;SDS011;7922;43.622;1.476;2023-07-09T14:15:28;9.00;;;8.10;;
15645;SDS011;7922;43.622;1.476;2023-07-09T14:17:53;9.68;;;8.77;;
15645;SDS011;7922;43.622;1.476;2023-07-09T14:20:19;9.23;;;8.40;;
15645;SDS011;7922;43.622;1.476;2023-07-09T14:22:44;9.00;;;7.57;;
15645;SDS011;7922;43.622;1.476;2023-07-09T14:25:31;8.57;;;7.57;;
15645;SDS011;7922;43.622;1.476;2023-07-09T14:27:55;8.55;;;7.85;;
15645;SDS011;7922;43.622;1.476;2023-07-09T14:30:21;8.63;;;7.65;;
15645;SDS011;7922;43.622;1.476;2023-07-09T14:32:48;10.80;;;7.97;;
15645;SDS011;7922;43.622;1.476;2023-07-09T14:35:22;9.55;;;7.88;;
15645;SDS011;7922;43.622;1.476;2023-07-09T14:37:50;8.80;;;8.00;;
15645;SDS011;7922;43.622;1.476;2023-07-09T14:40:17;9.52;;;8.63;;
15645;SDS011;7922;43.622;1.476;2023-07-09T14:42:44;9.23;;;8.30;;
15645;SDS011;7922;43.622;1.476;2023-07-09T14:45:19;8.65;;;7.85;;
15645;SDS011;7922;43.622;1.476;2023-07-09T14:47:46;9.07;;;8.18;;
15645;SDS011;7922;43.622;1.476;2023-07-09T14:50:12;9.13;;;7.65;;
15645;SDS011;7922;43.622;1.476;2023-07-09T14:52:38;8.57;;;7.70;;
15645;SDS011;7922;43.622;1.476;2023-07-09T14:55:05;8.32;;;7.57;;
15645;SDS011;7922;43.622;1.476;2023-07-09T14:57:33;9.15;;;8.32;;
15645;SDS011;7922;43.622;1.476;2023-07-09T14:59:58;8.60;;;7.80;;
15645;SDS011;7922;43.622;1.476;2023-07-09T15:04:54;8.18;;;7.38;;
15645;SDS011;7922;43.622;1.476;2023-07-09T15:07:20;8.65;;;7.72;;
15645;SDS011;7922;43.622;1.476;2023-07-09T15:09:45;8.18;;;7.38;;
15645;SDS011;7922;43.622;1.476;2023-07-09T15:12:19;7.63;;;6.93;;
15645;SDS011;7922;43.622;1.476;2023-07-09T15:14:46;8.57;;;7.78;;
15645;SDS011;7922;43.622;1.476;2023-07-09T15:17:13;8.00;;;7.30;;
15645;SDS011;7922;43.622;1.476;2023-07-09T15:19:39;7.88;;;7.15;;
15645;SDS011;7922;43.622;1.476;2023-07-09T15:22:04;8.63;;;7.57;;
15645;SDS011;7922;43.622;1.476;2023-07-09T15:24:39;9.07;;;7.68;;
15645;SDS011;7922;43.622;1.476;2023-07-09T15:27:04;8.50;;;7.78;;
15645;SDS011;7922;43.622;1.476;2023-07-09T15:29:30;8.50;;;7.75;;
15645;SDS011;7922;43.622;1.476;2023-07-09T15:31:55;7.85;;;7.15;;
15645;SDS011;7922;43.622;1.476;2023-07-09T15:34:21;8.73;;;7.65;;
15645;SDS011;7922;43.622;1.476;2023-07-09T15:36:47;8.38;;;7.53;;
15645;SDS011;7922;43.622;1.476;2023-07-09T15:39:14;8.35;;;7.65;;